Orbital elements of FENGYUN 1C DEB
| Launched | 9 May 1999 |
| Flight ended | – |
| Launch site | Taiyuan Space Center, PRC |
| Owner | People's Republic of China |
| NORAD ID | 31198 |
| Date fetched |
Epoch osculation |
Inc. [°] |
Ecc. | RA asc node [hr] |
Arg Peri. [°] |
Mean anom [°] |
Mean motion [rev/day] |
Abs. mag |
| Date fetched |
Epoch osculation |
Inc. [°] |
Ecc. | RA asc node [hr] |
Arg Peri. [°] |
Mean anom [°] |
Mean motion [rev/day] |
Abs. mag |
| 2026 May 03 17:57 | 2026 Apr 30 12:14:15 | 98.6094 | 0.02035 | 14.4069 | 339.0514 | 20.2388 | 13.75560 | – |
| 2026 May 02 17:57 | 2026 Apr 30 12:14:15 | 98.6094 | 0.02035 | 14.4069 | 339.0514 | 20.2388 | 13.75560 | – |
| 2026 May 01 17:56 | 2026 Apr 30 12:14:15 | 98.6094 | 0.02035 | 14.4069 | 339.0514 | 20.2388 | 13.75560 | – |
| 2026 Apr 30 17:56 | 2026 Apr 30 12:14:15 | 98.6094 | 0.02035 | 14.4069 | 339.0514 | 20.2388 | 13.75560 | – |
| 2026 Apr 29 17:57 | 2026 Apr 23 00:26:06 | 98.6090 | 0.02039 | 13.9552 | 359.1943 | 20.2388 | 13.75560 | – |
| 2026 Apr 28 17:56 | 2026 Apr 23 00:26:06 | 98.6090 | 0.02039 | 13.9552 | 359.1943 | 20.2388 | 13.75560 | – |
| 2026 Apr 27 17:58 | 2026 Apr 23 00:26:06 | 98.6090 | 0.02039 | 13.9552 | 359.1943 | 20.2388 | 13.75560 | – |
| 2026 Apr 26 17:58 | 2026 Apr 23 00:26:06 | 98.6090 | 0.02039 | 13.9552 | 359.1943 | 20.2388 | 13.75560 | – |
| 2026 Apr 25 17:58 | 2026 Apr 23 00:26:06 | 98.6090 | 0.02039 | 13.9552 | 359.1943 | 20.2388 | 13.75560 | – |
| 2026 Apr 24 17:59 | 2026 Apr 23 00:26:06 | 98.6090 | 0.02039 | 13.9552 | 359.1943 | 20.2388 | 13.75560 | – |
| 2026 Apr 23 17:57 | 2026 Apr 19 00:25:26 | 98.6086 | 0.02041 | 13.7141 | 9.9353 | 20.2388 | 13.75560 | – |
| 2026 Apr 22 17:57 | 2026 Apr 19 00:25:26 | 98.6086 | 0.02041 | 13.7141 | 9.9353 | 20.2388 | 13.75560 | – |
| 2026 Apr 21 17:57 | 2026 Apr 19 00:25:26 | 98.6086 | 0.02041 | 13.7141 | 9.9353 | 20.2388 | 13.75560 | – |
| 2026 Apr 20 17:57 | 2026 Apr 19 00:25:26 | 98.6086 | 0.02041 | 13.7141 | 9.9353 | 20.2388 | 13.75560 | – |
| 2026 Apr 19 17:58 | 2026 Apr 19 00:25:26 | 98.6086 | 0.02041 | 13.7141 | 9.9353 | 20.2388 | 13.75560 | – |
| 2026 Apr 18 17:56 | 2026 Apr 12 23:32:04 | 98.6083 | 0.02044 | 13.3501 | 26.1262 | 20.2388 | 13.75560 | – |
| 2026 Apr 16 17:57 | 2026 Apr 12 23:32:04 | 98.6083 | 0.02044 | 13.3501 | 26.1262 | 20.2388 | 13.75560 | – |
| 2026 Apr 14 17:57 | 2026 Apr 12 23:32:04 | 98.6083 | 0.02044 | 13.3501 | 26.1262 | 20.2388 | 13.75560 | – |
| 2026 Apr 13 17:57 | 2026 Apr 12 23:32:04 | 98.6083 | 0.02044 | 13.3501 | 26.1262 | 20.2388 | 13.75560 | – |
| 2026 Apr 12 17:57 | 2026 Apr 06 12:10:13 | 98.6081 | 0.02047 | 12.9599 | 43.4637 | 20.2388 | 13.75560 | – |
| 2026 Apr 11 17:57 | 2026 Apr 06 12:10:13 | 98.6081 | 0.02047 | 12.9599 | 43.4637 | 20.2388 | 13.75560 | – |
| 2026 Apr 10 17:58 | 2026 Apr 06 12:10:13 | 98.6081 | 0.02047 | 12.9599 | 43.4637 | 20.2388 | 13.75560 | – |
| 2026 Apr 09 18:01 | 2026 Apr 06 12:10:13 | 98.6081 | 0.02047 | 12.9599 | 43.4637 | 20.2388 | 13.75560 | – |
| 2026 Apr 08 17:57 | 2026 Apr 06 12:10:13 | 98.6081 | 0.02047 | 12.9599 | 43.4637 | 20.2388 | 13.75560 | – |
| 2026 Apr 07 17:57 | 2026 Apr 01 11:43:09 | 98.6079 | 0.02048 | 12.6574 | 56.8925 | 20.2388 | 13.75560 | – |
| 2026 Apr 06 17:57 | 2026 Apr 01 11:43:09 | 98.6079 | 0.02048 | 12.6574 | 56.8925 | 20.2388 | 13.75560 | – |